sensor_id;sensor_type;location;lat;lon;timestamp;temperature;humidity
30399;DHT22;17195;50.838;7.214;2023-05-10T00:00:12;12.90;99.90
30399;DHT22;17195;50.838;7.214;2023-05-10T00:02:37;13.00;99.90
30399;DHT22;17195;50.838;7.214;2023-05-10T00:05:04;13.00;99.90
30399;DHT22;17195;50.838;7.214;2023-05-10T00:07:30;13.00;99.90
30399;DHT22;17195;50.838;7.214;2023-05-10T00:09:55;13.00;99.90
30399;DHT22;17195;50.838;7.214;2023-05-10T00:12:21;13.00;99.90
30399;DHT22;17195;50.838;7.214;2023-05-10T00:14:46;13.00;99.90
30399;DHT22;17195;50.838;7.214;2023-05-10T00:17:12;13.00;99.90
30399;DHT22;17195;50.838;7.214;2023-05-10T00:19:37;13.00;99.90
30399;DHT22;17195;50.838;7.214;2023-05-10T00:22:03;13.10;99.90
30399;DHT22;17195;50.838;7.214;2023-05-10T00:24:29;13.00;99.90
30399;DHT22;17195;50.838;7.214;2023-05-10T00:26:54;13.00;99.90
30399;DHT22;17195;50.838;7.214;2023-05-10T00:29:20;13.00;99.90
30399;DHT22;17195;50.838;7.214;2023-05-10T00:31:45;13.00;99.90
30399;DHT22;17195;50.838;7.214;2023-05-10T00:34:11;13.00;99.90
30399;DHT22;17195;50.838;7.214;2023-05-10T00:36:37;13.00;99.90
30399;DHT22;17195;50.838;7.214;2023-05-10T00:39:02;13.00;99.90
30399;DHT22;17195;50.838;7.214;2023-05-10T00:41:29;13.00;99.90
30399;DHT22;17195;50.838;7.214;2023-05-10T00:43:57;13.10;99.90
30399;DHT22;17195;50.838;7.214;2023-05-10T00:46:23;13.10;99.90
30399;DHT22;17195;50.838;7.214;2023-05-10T00:48:50;13.10;99.90
30399;DHT22;17195;50.838;7.214;2023-05-10T00:51:15;13.10;99.90
30399;DHT22;17195;50.838;7.214;2023-05-10T00:53:41;13.10;99.90
30399;DHT22;17195;50.838;7.214;2023-05-10T00:56:07;13.10;99.90
30399;DHT22;17195;50.838;7.214;2023-05-10T00:58:33;13.10;99.90
30399;DHT22;17195;50.838;7.214;2023-05-10T01:01:00;13.10;99.90
30399;DHT22;17195;50.838;7.214;2023-05-10T01:03:25;13.10;99.90
30399;DHT22;17195;50.838;7.214;2023-05-10T01:05:51;13.10;99.90
30399;DHT22;17195;50.838;7.214;2023-05-10T01:08:17;13.10;99.90
30399;DHT22;17195;50.838;7.214;2023-05-10T01:10:43;13.10;99.90
30399;DHT22;17195;50.838;7.214;2023-05-10T01:13:09;13.10;99.90
30399;DHT22;17195;50.838;7.214;2023-05-10T01:15:35;13.10;99.90
30399;DHT22;17195;50.838;7.214;2023-05-10T01:18:02;13.10;99.90
30399;DHT22;17195;50.838;7.214;2023-05-10T01:20:35;13.20;99.90
30399;DHT22;17195;50.838;7.214;2023-05-10T01:31:51;13.20;99.90
30399;DHT22;17195;50.838;7.214;2023-05-10T01:34:21;13.20;99.90
30399;DHT22;17195;50.838;7.214;2023-05-10T01:36:55;13.20;99.90
30399;DHT22;17195;50.838;7.214;2023-05-10T01:39:37;13.20;99.90
30399;DHT22;17195;50.838;7.214;2023-05-10T01:42:08;13.20;99.90
30399;DHT22;17195;50.838;7.214;2023-05-10T01:44:56;13.10;99.90
30399;DHT22;17195;50.838;7.214;2023-05-10T01:47:37;13.10;99.90
30399;DHT22;17195;50.838;7.214;2023-05-10T01:50:06;13.20;99.90
30399;DHT22;17195;50.838;7.214;2023-05-10T01:52:41;13.20;99.90
30399;DHT22;17195;50.838;7.214;2023-05-10T01:55:13;13.10;99.90
30399;DHT22;17195;50.838;7.214;2023-05-10T01:57:40;13.20;99.90
30399;DHT22;17195;50.838;7.214;2023-05-10T02:00:08;13.20;99.90
30399;DHT22;17195;50.838;7.214;2023-05-10T02:02:37;13.20;99.90
30399;DHT22;17195;50.838;7.214;2023-05-10T02:05:05;13.20;99.90
30399;DHT22;17195;50.838;7.214;2023-05-10T02:07:34;13.20;99.90
30399;DHT22;17195;50.838;7.214;2023-05-10T02:10:02;13.10;99.90
30399;DHT22;17195;50.838;7.214;2023-05-10T02:12:30;13.20;99.90
30399;DHT22;17195;50.838;7.214;2023-05-10T02:14:57;13.20;99.90
30399;DHT22;17195;50.838;7.214;2023-05-10T02:17:25;13.10;99.90
30399;DHT22;17195;50.838;7.214;2023-05-10T02:19:51;13.10;99.90
30399;DHT22;17195;50.838;7.214;2023-05-10T02:22:19;13.10;99.90
30399;DHT22;17195;50.838;7.214;2023-05-10T02:24:45;13.20;99.90
30399;DHT22;17195;50.838;7.214;2023-05-10T02:27:12;13.10;99.90
30399;DHT22;17195;50.838;7.214;2023-05-10T02:29:39;13.20;99.90
30399;DHT22;17195;50.838;7.214;2023-05-10T02:32:06;13.20;99.90
30399;DHT22;17195;50.838;7.214;2023-05-10T02:34:34;13.20;99.90
30399;DHT22;17195;50.838;7.214;2023-05-10T02:37:02;13.20;99.90
30399;DHT22;17195;50.838;7.214;2023-05-10T02:39:28;13.20;99.90
30399;DHT22;17195;50.838;7.214;2023-05-10T02:41:54;13.10;99.90
30399;DHT22;17195;50.838;7.214;2023-05-10T02:44:22;13.20;99.90
30399;DHT22;17195;50.838;7.214;2023-05-10T02:46:48;13.10;99.90
30399;DHT22;17195;50.838;7.214;2023-05-10T02:49:14;13.10;99.90
30399;DHT22;17195;50.838;7.214;2023-05-10T02:51:44;13.20;99.90
30399;DHT22;17195;50.838;7.214;2023-05-10T02:54:20;13.10;99.90
30399;DHT22;17195;50.838;7.214;2023-05-10T02:56:58;13.20;99.90
30399;DHT22;17195;50.838;7.214;2023-05-10T02:59:26;13.20;99.90
30399;DHT22;17195;50.838;7.214;2023-05-10T03:01:52;13.10;99.90
30399;DHT22;17195;50.838;7.214;2023-05-10T03:04:18;13.10;99.90
30399;DHT22;17195;50.838;7.214;2023-05-10T03:06:44;13.20;99.90
30399;DHT22;17195;50.838;7.214;2023-05-10T03:09:10;13.10;99.90
30399;DHT22;17195;50.838;7.214;2023-05-10T03:12:00;13.10;99.90
30399;DHT22;17195;50.838;7.214;2023-05-10T03:14:48;13.10;99.90
30399;DHT22;17195;50.838;7.214;2023-05-10T03:17:35;13.10;99.90
30399;DHT22;17195;50.838;7.214;2023-05-10T03:20:10;13.10;99.90
30399;DHT22;17195;50.838;7.214;2023-05-10T03:22:48;13.10;99.90
30399;DHT22;17195;50.838;7.214;2023-05-10T03:25:16;13.20;99.90
30399;DHT22;17195;50.838;7.214;2023-05-10T03:27:44;13.10;99.90
30399;DHT22;17195;50.838;7.214;2023-05-10T03:30:12;13.00;99.90
30399;DHT22;17195;50.838;7.214;2023-05-10T03:32:38;13.10;99.90
30399;DHT22;17195;50.838;7.214;2023-05-10T03:35:11;13.10;99.90
30399;DHT22;17195;50.838;7.214;2023-05-10T03:37:37;13.10;99.90
30399;DHT22;17195;50.838;7.214;2023-05-10T03:40:03;13.10;99.90
30399;DHT22;17195;50.838;7.214;2023-05-10T03:42:29;13.20;99.90
30399;DHT22;17195;50.838;7.214;2023-05-10T03:44:55;13.20;99.90
30399;DHT22;17195;50.838;7.214;2023-05-10T03:47:20;13.20;99.90
30399;DHT22;17195;50.838;7.214;2023-05-10T03:49:46;13.20;99.90
30399;DHT22;17195;50.838;7.214;2023-05-10T03:52:11;13.20;99.90
30399;DHT22;17195;50.838;7.214;2023-05-10T03:54:37;13.20;99.90
30399;DHT22;17195;50.838;7.214;2023-05-10T03:57:03;13.30;99.90
30399;DHT22;17195;50.838;7.214;2023-05-10T03:59:29;13.30;99.90
30399;DHT22;17195;50.838;7.214;2023-05-10T04:01:55;13.30;99.90
30399;DHT22;17195;50.838;7.214;2023-05-10T04:04:20;13.20;99.90
30399;DHT22;17195;50.838;7.214;2023-05-10T04:06:47;13.20;99.90
30399;DHT22;17195;50.838;7.214;2023-05-10T04:09:12;13.20;99.90
30399;DHT22;17195;50.838;7.214;2023-05-10T04:11:38;13.30;99.90
30399;DHT22;17195;50.838;7.214;2023-05-10T04:14:04;13.30;99.90
30399;DHT22;17195;50.838;7.214;2023-05-10T04:16:30;13.20;99.90
30399;DHT22;17195;50.838;7.214;2023-05-10T04:18:55;13.20;99.90
30399;DHT22;17195;50.838;7.214;2023-05-10T04:21:21;13.20;99.90
30399;DHT22;17195;50.838;7.214;2023-05-10T04:23:46;13.20;99.90
30399;DHT22;17195;50.838;7.214;2023-05-10T04:26:13;13.30;99.90
30399;DHT22;17195;50.838;7.214;2023-05-10T04:28:38;13.30;99.90
30399;DHT22;17195;50.838;7.214;2023-05-10T04:31:05;13.40;99.90
30399;DHT22;17195;50.838;7.214;2023-05-10T04:33:31;13.40;99.90
30399;DHT22;17195;50.838;7.214;2023-05-10T04:35:57;13.40;99.90
30399;DHT22;17195;50.838;7.214;2023-05-10T04:38:23;13.40;99.90
30399;DHT22;17195;50.838;7.214;2023-05-10T04:40:48;13.50;99.90
30399;DHT22;17195;50.838;7.214;2023-05-10T04:43:14;13.40;99.90
30399;DHT22;17195;50.838;7.214;2023-05-10T04:45:39;13.40;99.90
30399;DHT22;17195;50.838;7.214;2023-05-10T04:48:05;13.30;99.90
30399;DHT22;17195;50.838;7.214;2023-05-10T04:50:31;13.40;99.90
30399;DHT22;17195;50.838;7.214;2023-05-10T04:52:57;13.40;99.90
30399;DHT22;17195;50.838;7.214;2023-05-10T04:55:23;13.50;99.90
30399;DHT22;17195;50.838;7.214;2023-05-10T04:57:49;13.50;99.90
30399;DHT22;17195;50.838;7.214;2023-05-10T05:00:15;13.50;99.90
30399;DHT22;17195;50.838;7.214;2023-05-10T05:02:44;13.50;99.90
30399;DHT22;17195;50.838;7.214;2023-05-10T05:05:12;13.50;99.90
30399;DHT22;17195;50.838;7.214;2023-05-10T05:07:38;13.60;99.90
30399;DHT22;17195;50.838;7.214;2023-05-10T05:10:07;13.50;99.90
30399;DHT22;17195;50.838;7.214;2023-05-10T05:12:33;13.60;99.90
30399;DHT22;17195;50.838;7.214;2023-05-10T05:14:59;13.60;99.90
30399;DHT22;17195;50.838;7.214;2023-05-10T05:17:25;13.70;99.90
30399;DHT22;17195;50.838;7.214;2023-05-10T05:19:51;13.70;99.90
30399;DHT22;17195;50.838;7.214;2023-05-10T05:22:16;13.70;99.90
30399;DHT22;17195;50.838;7.214;2023-05-10T05:24:42;13.60;99.90
30399;DHT22;17195;50.838;7.214;2023-05-10T05:27:08;13.70;99.90
30399;DHT22;17195;50.838;7.214;2023-05-10T05:29:33;13.80;99.90
30399;DHT22;17195;50.838;7.214;2023-05-10T05:31:59;13.80;99.90
30399;DHT22;17195;50.838;7.214;2023-05-10T05:34:25;13.80;99.90
30399;DHT22;17195;50.838;7.214;2023-05-10T05:36:51;13.90;99.90
30399;DHT22;17195;50.838;7.214;2023-05-10T05:39:17;13.80;99.90
30399;DHT22;17195;50.838;7.214;2023-05-10T05:41:42;13.80;99.90
30399;DHT22;17195;50.838;7.214;2023-05-10T05:44:08;13.80;99.90
30399;DHT22;17195;50.838;7.214;2023-05-10T05:46:33;13.80;99.90
30399;DHT22;17195;50.838;7.214;2023-05-10T05:48:59;13.80;99.90
30399;DHT22;17195;50.838;7.214;2023-05-10T05:51:25;13.80;99.90
30399;DHT22;17195;50.838;7.214;2023-05-10T05:53:50;13.80;99.90
30399;DHT22;17195;50.838;7.214;2023-05-10T05:56:16;13.80;99.90
30399;DHT22;17195;50.838;7.214;2023-05-10T05:58:43;13.80;99.90
30399;DHT22;17195;50.838;7.214;2023-05-10T06:01:09;13.70;99.90
30399;DHT22;17195;50.838;7.214;2023-05-10T06:03:35;13.60;99.90
30399;DHT22;17195;50.838;7.214;2023-05-10T06:06:00;13.60;99.90
30399;DHT22;17195;50.838;7.214;2023-05-10T06:08:26;13.70;99.90
30399;DHT22;17195;50.838;7.214;2023-05-10T06:10:51;13.70;99.90
30399;DHT22;17195;50.838;7.214;2023-05-10T06:13:17;13.70;99.90
30399;DHT22;17195;50.838;7.214;2023-05-10T06:15:42;13.80;99.90
30399;DHT22;17195;50.838;7.214;2023-05-10T06:18:08;14.00;99.90
30399;DHT22;17195;50.838;7.214;2023-05-10T06:20:33;14.10;99.90
30399;DHT22;17195;50.838;7.214;2023-05-10T06:22:59;14.20;99.90
30399;DHT22;17195;50.838;7.214;2023-05-10T06:25:25;14.30;99.90
30399;DHT22;17195;50.838;7.214;2023-05-10T06:27:50;14.40;99.90
30399;DHT22;17195;50.838;7.214;2023-05-10T06:30:20;14.60;99.90
30399;DHT22;17195;50.838;7.214;2023-05-10T06:32:48;14.70;99.90
30399;DHT22;17195;50.838;7.214;2023-05-10T06:35:13;14.80;99.90
30399;DHT22;17195;50.838;7.214;2023-05-10T06:37:39;14.80;99.90
30399;DHT22;17195;50.838;7.214;2023-05-10T06:40:05;14.90;99.90
30399;DHT22;17195;50.838;7.214;2023-05-10T06:42:31;14.90;99.90
30399;DHT22;17195;50.838;7.214;2023-05-10T06:44:57;14.90;99.90
30399;DHT22;17195;50.838;7.214;2023-05-10T06:47:23;14.90;99.90
30399;DHT22;17195;50.838;7.214;2023-05-10T06:49:48;14.90;99.90
30399;DHT22;17195;50.838;7.214;2023-05-10T06:52:14;15.00;99.90
30399;DHT22;17195;50.838;7.214;2023-05-10T06:54:39;15.10;99.90
30399;DHT22;17195;50.838;7.214;2023-05-10T06:57:05;15.10;99.90
30399;DHT22;17195;50.838;7.214;2023-05-10T06:59:31;15.10;99.90
30399;DHT22;17195;50.838;7.214;2023-05-10T07:01:57;15.10;99.90
30399;DHT22;17195;50.838;7.214;2023-05-10T07:04:23;14.90;99.90
30399;DHT22;17195;50.838;7.214;2023-05-10T07:06:49;14.70;99.90
30399;DHT22;17195;50.838;7.214;2023-05-10T07:09:15;14.70;99.90
30399;DHT22;17195;50.838;7.214;2023-05-10T07:11:41;14.70;99.90
30399;DHT22;17195;50.838;7.214;2023-05-10T07:14:06;14.70;99.90
30399;DHT22;17195;50.838;7.214;2023-05-10T07:16:32;14.70;99.90
30399;DHT22;17195;50.838;7.214;2023-05-10T07:18:57;14.70;99.90
30399;DHT22;17195;50.838;7.214;2023-05-10T07:21:23;14.70;99.90
30399;DHT22;17195;50.838;7.214;2023-05-10T07:23:54;14.70;99.90
30399;DHT22;17195;50.838;7.214;2023-05-10T07:26:19;14.70;99.90
30399;DHT22;17195;50.838;7.214;2023-05-10T07:28:46;14.80;99.90
30399;DHT22;17195;50.838;7.214;2023-05-10T07:31:12;14.90;99.90
30399;DHT22;17195;50.838;7.214;2023-05-10T07:33:37;14.80;99.90
30399;DHT22;17195;50.838;7.214;2023-05-10T07:36:03;14.80;99.90
30399;DHT22;17195;50.838;7.214;2023-05-10T07:38:28;14.90;99.90
30399;DHT22;17195;50.838;7.214;2023-05-10T07:40:54;14.90;99.90
30399;DHT22;17195;50.838;7.214;2023-05-10T07:43:20;14.80;99.90
30399;DHT22;17195;50.838;7.214;2023-05-10T07:45:45;14.70;99.90
30399;DHT22;17195;50.838;7.214;2023-05-10T07:48:11;14.70;99.90
30399;DHT22;17195;50.838;7.214;2023-05-10T07:50:36;14.60;99.90
30399;DHT22;17195;50.838;7.214;2023-05-10T07:53:02;14.60;99.90
30399;DHT22;17195;50.838;7.214;2023-05-10T07:55:27;14.50;99.90
30399;DHT22;17195;50.838;7.214;2023-05-10T07:57:53;14.60;99.90
30399;DHT22;17195;50.838;7.214;2023-05-10T08:00:19;14.60;99.90
30399;DHT22;17195;50.838;7.214;2023-05-10T08:02:46;14.60;99.90
30399;DHT22;17195;50.838;7.214;2023-05-10T08:05:11;14.50;99.90
30399;DHT22;17195;50.838;7.214;2023-05-10T08:07:37;14.50;99.90
30399;DHT22;17195;50.838;7.214;2023-05-10T08:10:04;14.60;99.90
30399;DHT22;17195;50.838;7.214;2023-05-10T08:12:30;14.60;99.90
30399;DHT22;17195;50.838;7.214;2023-05-10T08:14:56;14.60;99.90
30399;DHT22;17195;50.838;7.214;2023-05-10T08:17:21;14.60;99.90
30399;DHT22;17195;50.838;7.214;2023-05-10T08:19:47;14.60;99.90
30399;DHT22;17195;50.838;7.214;2023-05-10T08:22:12;14.60;99.90
30399;DHT22;17195;50.838;7.214;2023-05-10T08:24:38;14.70;99.90
30399;DHT22;17195;50.838;7.214;2023-05-10T08:27:08;14.80;99.90
30399;DHT22;17195;50.838;7.214;2023-05-10T08:29:34;15.00;99.90
30399;DHT22;17195;50.838;7.214;2023-05-10T08:31:59;15.10;99.90
30399;DHT22;17195;50.838;7.214;2023-05-10T08:34:26;15.30;99.90
30399;DHT22;17195;50.838;7.214;2023-05-10T08:36:52;15.40;99.90
30399;DHT22;17195;50.838;7.214;2023-05-10T08:39:18;15.60;99.90
30399;DHT22;17195;50.838;7.214;2023-05-10T08:41:44;15.70;99.90
30399;DHT22;17195;50.838;7.214;2023-05-10T08:44:10;15.80;99.90
30399;DHT22;17195;50.838;7.214;2023-05-10T08:46:37;15.90;99.90
30399;DHT22;17195;50.838;7.214;2023-05-10T08:49:11;15.90;99.90
30399;DHT22;17195;50.838;7.214;2023-05-10T08:51:40;16.10;99.90
30399;DHT22;17195;50.838;7.214;2023-05-10T08:54:09;16.40;99.90
30399;DHT22;17195;50.838;7.214;2023-05-10T08:56:35;16.50;99.90
30399;DHT22;17195;50.838;7.214;2023-05-10T08:59:01;16.70;99.90
30399;DHT22;17195;50.838;7.214;2023-05-10T09:01:28;16.90;99.90
30399;DHT22;17195;50.838;7.214;2023-05-10T09:03:57;17.30;99.90
30399;DHT22;17195;50.838;7.214;2023-05-10T09:06:23;17.70;99.90
30399;DHT22;17195;50.838;7.214;2023-05-10T09:08:49;18.10;99.90
30399;DHT22;17195;50.838;7.214;2023-05-10T09:11:16;18.50;99.90
30399;DHT22;17195;50.838;7.214;2023-05-10T09:13:42;18.60;99.90
30399;DHT22;17195;50.838;7.214;2023-05-10T09:16:09;18.50;99.90
30399;DHT22;17195;50.838;7.214;2023-05-10T09:18:34;18.50;99.90
30399;DHT22;17195;50.838;7.214;2023-05-10T09:21:00;18.30;99.90
30399;DHT22;17195;50.838;7.214;2023-05-10T09:23:26;18.10;99.90
30399;DHT22;17195;50.838;7.214;2023-05-10T09:26:04;17.70;99.90
30399;DHT22;17195;50.838;7.214;2023-05-10T09:28:54;17.40;99.90
30399;DHT22;17195;50.838;7.214;2023-05-10T09:31:20;16.60;99.90
30399;DHT22;17195;50.838;7.214;2023-05-10T09:33:47;16.30;99.90
30399;DHT22;17195;50.838;7.214;2023-05-10T09:36:13;15.90;99.90
30399;DHT22;17195;50.838;7.214;2023-05-10T09:38:47;15.80;99.90
30399;DHT22;17195;50.838;7.214;2023-05-10T09:41:21;15.80;99.90
30399;DHT22;17195;50.838;7.214;2023-05-10T09:43:47;15.80;99.90
30399;DHT22;17195;50.838;7.214;2023-05-10T09:46:14;16.00;99.90
30399;DHT22;17195;50.838;7.214;2023-05-10T09:48:46;16.20;99.90
30399;DHT22;17195;50.838;7.214;2023-05-10T09:51:29;16.40;99.90
30399;DHT22;17195;50.838;7.214;2023-05-10T09:54:15;16.60;99.90
30399;DHT22;17195;50.838;7.214;2023-05-10T09:56:41;16.90;99.90
30399;DHT22;17195;50.838;7.214;2023-05-10T09:59:10;16.90;99.90
30399;DHT22;17195;50.838;7.214;2023-05-10T10:01:36;16.90;99.90
30399;DHT22;17195;50.838;7.214;2023-05-10T10:04:04;16.80;99.90
30399;DHT22;17195;50.838;7.214;2023-05-10T10:06:35;16.60;99.90
30399;DHT22;17195;50.838;7.214;2023-05-10T10:09:02;16.40;99.90
30399;DHT22;17195;50.838;7.214;2023-05-10T10:11:28;16.30;99.90
30399;DHT22;17195;50.838;7.214;2023-05-10T10:13:54;16.30;99.90
30399;DHT22;17195;50.838;7.214;2023-05-10T10:16:20;16.40;99.90
30399;DHT22;17195;50.838;7.214;2023-05-10T10:18:47;16.40;99.90
30399;DHT22;17195;50.838;7.214;2023-05-10T10:21:13;16.40;99.90
30399;DHT22;17195;50.838;7.214;2023-05-10T10:23:40;16.30;99.90
30399;DHT22;17195;50.838;7.214;2023-05-10T10:26:06;16.30;99.90
30399;DHT22;17195;50.838;7.214;2023-05-10T10:34:05;16.80;99.90
30399;DHT22;17195;50.838;7.214;2023-05-10T10:36:45;16.90;99.90
30399;DHT22;17195;50.838;7.214;2023-05-10T10:39:11;17.00;99.90
30399;DHT22;17195;50.838;7.214;2023-05-10T10:54:59;16.80;99.90
30399;DHT22;17195;50.838;7.214;2023-05-10T10:57:25;16.40;99.90
30399;DHT22;17195;50.838;7.214;2023-05-10T11:00:17;16.40;99.90
30399;DHT22;17195;50.838;7.214;2023-05-10T11:07:52;17.00;99.90
30399;DHT22;17195;50.838;7.214;2023-05-10T11:10:25;17.40;99.90
30399;DHT22;17195;50.838;7.214;2023-05-10T11:13:01;17.70;99.90
30399;DHT22;17195;50.838;7.214;2023-05-10T11:15:37;17.80;99.90
30399;DHT22;17195;50.838;7.214;2023-05-10T11:18:21;17.90;99.90
30399;DHT22;17195;50.838;7.214;2023-05-10T11:20:52;17.70;99.90
30399;DHT22;17195;50.838;7.214;2023-05-10T11:23:20;17.40;99.90
30399;DHT22;17195;50.838;7.214;2023-05-10T11:25:48;17.30;99.90
30399;DHT22;17195;50.838;7.214;2023-05-10T11:28:14;17.20;99.90
30399;DHT22;17195;50.838;7.214;2023-05-10T11:30:43;17.30;99.90
30399;DHT22;17195;50.838;7.214;2023-05-10T11:33:11;17.60;99.90
30399;DHT22;17195;50.838;7.214;2023-05-10T11:35:41;17.80;99.90
30399;DHT22;17195;50.838;7.214;2023-05-10T11:38:07;17.80;99.90
30399;DHT22;17195;50.838;7.214;2023-05-10T11:40:34;18.00;99.90
30399;DHT22;17195;50.838;7.214;2023-05-10T11:43:00;18.10;99.90
30399;DHT22;17195;50.838;7.214;2023-05-10T11:45:25;18.00;99.90
30399;DHT22;17195;50.838;7.214;2023-05-10T11:47:51;18.10;99.90
30399;DHT22;17195;50.838;7.214;2023-05-10T11:50:17;18.00;99.90
30399;DHT22;17195;50.838;7.214;2023-05-10T11:52:43;18.00;99.90
30399;DHT22;17195;50.838;7.214;2023-05-10T11:55:08;17.80;99.90
30399;DHT22;17195;50.838;7.214;2023-05-10T11:57:35;18.10;99.90
30399;DHT22;17195;50.838;7.214;2023-05-10T12:00:01;18.40;99.90
30399;DHT22;17195;50.838;7.214;2023-05-10T12:02:29;18.40;99.90
30399;DHT22;17195;50.838;7.214;2023-05-10T12:04:55;18.50;99.90
30399;DHT22;17195;50.838;7.214;2023-05-10T12:07:21;18.50;99.90
30399;DHT22;17195;50.838;7.214;2023-05-10T12:10:12;18.50;99.90
30399;DHT22;17195;50.838;7.214;2023-05-10T12:12:45;18.40;99.90
30399;DHT22;17195;50.838;7.214;2023-05-10T12:15:20;18.40;99.90
30399;DHT22;17195;50.838;7.214;2023-05-10T12:17:47;18.40;99.90
30399;DHT22;17195;50.838;7.214;2023-05-10T12:20:26;18.50;99.90
30399;DHT22;17195;50.838;7.214;2023-05-10T12:22:54;18.80;99.90
30399;DHT22;17195;50.838;7.214;2023-05-10T12:25:22;19.10;99.90
30399;DHT22;17195;50.838;7.214;2023-05-10T12:27:52;19.30;99.90
30399;DHT22;17195;50.838;7.214;2023-05-10T12:30:22;19.20;99.90
30399;DHT22;17195;50.838;7.214;2023-05-10T12:32:48;19.10;99.90
30399;DHT22;17195;50.838;7.214;2023-05-10T12:35:13;18.80;99.90
30399;DHT22;17195;50.838;7.214;2023-05-10T12:37:39;18.50;99.90
30399;DHT22;17195;50.838;7.214;2023-05-10T12:40:06;18.30;99.90
30399;DHT22;17195;50.838;7.214;2023-05-10T12:42:33;18.30;99.90
30399;DHT22;17195;50.838;7.214;2023-05-10T12:44:59;18.70;99.90
30399;DHT22;17195;50.838;7.214;2023-05-10T12:47:25;19.00;99.90
30399;DHT22;17195;50.838;7.214;2023-05-10T12:49:50;19.40;99.90
30399;DHT22;17195;50.838;7.214;2023-05-10T12:52:16;19.60;99.90
30399;DHT22;17195;50.838;7.214;2023-05-10T12:54:42;19.80;99.90
30399;DHT22;17195;50.838;7.214;2023-05-10T12:57:07;20.40;99.90
30399;DHT22;17195;50.838;7.214;2023-05-10T12:59:33;20.50;99.90
30399;DHT22;17195;50.838;7.214;2023-05-10T13:01:59;20.60;99.90
30399;DHT22;17195;50.838;7.214;2023-05-10T13:04:24;20.40;99.90
30399;DHT22;17195;50.838;7.214;2023-05-10T13:06:51;20.60;99.90
30399;DHT22;17195;50.838;7.214;2023-05-10T13:09:17;20.50;99.90
30399;DHT22;17195;50.838;7.214;2023-05-10T13:11:42;20.50;99.90
30399;DHT22;17195;50.838;7.214;2023-05-10T13:14:08;20.60;99.90
30399;DHT22;17195;50.838;7.214;2023-05-10T13:16:34;20.70;99.90
30399;DHT22;17195;50.838;7.214;2023-05-10T13:19:00;20.60;99.90
30399;DHT22;17195;50.838;7.214;2023-05-10T13:21:25;20.50;99.90
30399;DHT22;17195;50.838;7.214;2023-05-10T13:23:51;20.30;99.90
30399;DHT22;17195;50.838;7.214;2023-05-10T13:26:16;20.10;99.90
30399;DHT22;17195;50.838;7.214;2023-05-10T13:28:43;19.70;99.90
30399;DHT22;17195;50.838;7.214;2023-05-10T13:31:08;19.70;99.90
30399;DHT22;17195;50.838;7.214;2023-05-10T13:33:34;19.60;99.90
30399;DHT22;17195;50.838;7.214;2023-05-10T13:35:59;19.50;99.90
30399;DHT22;17195;50.838;7.214;2023-05-10T13:38:25;19.40;99.90
30399;DHT22;17195;50.838;7.214;2023-05-10T13:40:51;19.60;99.90
30399;DHT22;17195;50.838;7.214;2023-05-10T13:43:18;19.50;99.90
30399;DHT22;17195;50.838;7.214;2023-05-10T13:45:44;19.60;99.90
30399;DHT22;17195;50.838;7.214;2023-05-10T13:48:09;19.50;99.90
30399;DHT22;17195;50.838;7.214;2023-05-10T13:50:35;19.30;99.90
30399;DHT22;17195;50.838;7.214;2023-05-10T13:53:00;19.10;99.90
30399;DHT22;17195;50.838;7.214;2023-05-10T13:55:26;18.90;99.90
30399;DHT22;17195;50.838;7.214;2023-05-10T13:57:52;18.80;99.90
30399;DHT22;17195;50.838;7.214;2023-05-10T14:00:18;18.80;99.90
30399;DHT22;17195;50.838;7.214;2023-05-10T14:02:43;18.90;99.90
30399;DHT22;17195;50.838;7.214;2023-05-10T14:05:09;18.90;99.90
30399;DHT22;17195;50.838;7.214;2023-05-10T14:07:35;18.70;99.90
30399;DHT22;17195;50.838;7.214;2023-05-10T14:10:00;18.50;99.90
30399;DHT22;17195;50.838;7.214;2023-05-10T14:12:26;18.30;99.90
30399;DHT22;17195;50.838;7.214;2023-05-10T14:14:52;18.00;99.90
30399;DHT22;17195;50.838;7.214;2023-05-10T14:17:18;17.90;99.90
30399;DHT22;17195;50.838;7.214;2023-05-10T14:19:43;17.80;99.90
30399;DHT22;17195;50.838;7.214;2023-05-10T14:22:09;17.80;99.90
30399;DHT22;17195;50.838;7.214;2023-05-10T14:24:34;17.70;99.90
30399;DHT22;17195;50.838;7.214;2023-05-10T14:27:00;17.70;99.90
30399;DHT22;17195;50.838;7.214;2023-05-10T14:29:25;17.80;99.90
30399;DHT22;17195;50.838;7.214;2023-05-10T14:31:51;17.90;99.90
30399;DHT22;17195;50.838;7.214;2023-05-10T14:34:17;18.00;99.90
30399;DHT22;17195;50.838;7.214;2023-05-10T14:36:42;18.10;99.90
30399;DHT22;17195;50.838;7.214;2023-05-10T14:39:08;18.20;99.90
30399;DHT22;17195;50.838;7.214;2023-05-10T14:41:35;18.30;99.90
30399;DHT22;17195;50.838;7.214;2023-05-10T14:44:01;18.30;99.90
30399;DHT22;17195;50.838;7.214;2023-05-10T14:46:28;18.40;99.90
30399;DHT22;17195;50.838;7.214;2023-05-10T14:48:55;18.40;99.90
30399;DHT22;17195;50.838;7.214;2023-05-10T14:51:20;18.50;99.90
30399;DHT22;17195;50.838;7.214;2023-05-10T14:53:48;18.60;99.90
30399;DHT22;17195;50.838;7.214;2023-05-10T14:56:14;18.60;99.90
30399;DHT22;17195;50.838;7.214;2023-05-10T14:58:39;18.60;99.90
30399;DHT22;17195;50.838;7.214;2023-05-10T15:01:05;18.70;99.90
30399;DHT22;17195;50.838;7.214;2023-05-10T15:03:31;18.70;99.90
30399;DHT22;17195;50.838;7.214;2023-05-10T15:05:57;18.80;99.90
30399;DHT22;17195;50.838;7.214;2023-05-10T15:08:23;18.90;99.90
30399;DHT22;17195;50.838;7.214;2023-05-10T15:10:50;18.90;99.90
30399;DHT22;17195;50.838;7.214;2023-05-10T15:13:16;18.90;99.90
30399;DHT22;17195;50.838;7.214;2023-05-10T15:15:42;18.90;99.90
30399;DHT22;17195;50.838;7.214;2023-05-10T15:18:08;18.70;99.90
30399;DHT22;17195;50.838;7.214;2023-05-10T15:20:34;18.60;99.90
30399;DHT22;17195;50.838;7.214;2023-05-10T15:23:00;18.40;99.90
30399;DHT22;17195;50.838;7.214;2023-05-10T15:25:26;18.20;99.90
30399;DHT22;17195;50.838;7.214;2023-05-10T15:27:52;18.00;99.90
30399;DHT22;17195;50.838;7.214;2023-05-10T15:30:18;17.90;99.90
30399;DHT22;17195;50.838;7.214;2023-05-10T15:32:44;17.90;99.90
30399;DHT22;17195;50.838;7.214;2023-05-10T15:35:09;18.00;99.90
30399;DHT22;17195;50.838;7.214;2023-05-10T15:37:36;18.20;99.90
30399;DHT22;17195;50.838;7.214;2023-05-10T15:40:01;18.40;99.90
30399;DHT22;17195;50.838;7.214;2023-05-10T15:42:30;18.70;99.90
30399;DHT22;17195;50.838;7.214;2023-05-10T15:44:57;19.10;99.90
30399;DHT22;17195;50.838;7.214;2023-05-10T15:47:23;19.50;99.90
30399;DHT22;17195;50.838;7.214;2023-05-10T15:49:49;21.00;99.90
30399;DHT22;17195;50.838;7.214;2023-05-10T15:52:14;23.40;99.90
30399;DHT22;17195;50.838;7.214;2023-05-10T15:54:41;23.30;99.90
30399;DHT22;17195;50.838;7.214;2023-05-10T15:57:06;23.00;99.90
30399;DHT22;17195;50.838;7.214;2023-05-10T15:59:32;22.50;99.90
30399;DHT22;17195;50.838;7.214;2023-05-10T16:01:58;21.90;99.90